createdAt,value
2019-04-23T00:02:04.039Z,11.23
2019-04-23T00:04:38.618Z,11.19
2019-04-23T00:07:15.454Z,11.17
2019-04-23T00:09:43.827Z,11.16
2019-04-23T00:12:23.686Z,11.12
2019-04-23T00:14:52.055Z,11.11
2019-04-23T00:17:17.800Z,11.06
2019-04-23T00:19:47.254Z,11.05
2019-04-23T00:22:23.294Z,11.04
2019-04-23T00:25:30.328Z,10.98
2019-04-23T00:27:32.090Z,10.95
2019-04-23T00:29:56.095Z,10.94
2019-04-23T00:32:28.737Z,10.93
2019-04-23T00:37:31.329Z,10.91
2019-04-23T00:39:56.690Z,10.90
2019-04-23T00:42:38.546Z,10.86
2019-04-23T00:45:16.679Z,10.83
2019-04-23T00:50:12.127Z,10.79
2019-04-23T00:52:55.098Z,10.77
2019-04-23T00:55:12.443Z,10.72
2019-04-23T01:00:20.419Z,10.66
2019-04-23T01:02:47.403Z,10.62
2019-04-23T01:05:17.835Z,10.62
2019-04-23T01:07:44.517Z,10.60
2019-04-23T01:10:21.951Z,10.56
2019-04-23T01:12:51.644Z,10.55
2019-04-23T01:15:26.038Z,10.50
2019-04-23T01:17:53.314Z,10.49
2019-04-23T01:20:31.865Z,10.45
2019-04-23T01:22:40.194Z,10.47
2019-04-23T01:25:21.118Z,10.43
2019-04-23T01:28:13.913Z,10.39
2019-04-23T01:30:50.617Z,10.39
2019-04-23T01:33:27.136Z,10.33
2019-04-23T01:36:03.101Z,10.31
2019-04-23T01:38:29.297Z,10.30
2019-04-23T01:40:47.204Z,10.25
2019-04-23T01:43:23.781Z,10.25
2019-04-23T01:45:54.580Z,10.20
2019-04-23T01:48:30.124Z,10.19
2019-04-23T01:51:14.999Z,10.15
2019-04-23T01:53:37.356Z,10.13
2019-04-23T01:56:04.746Z,10.13
2019-04-23T02:01:09.859Z,10.06
2019-04-23T02:03:36.559Z,10.00
2019-04-23T02:06:07.052Z,10.02
2019-04-23T02:08:45.276Z,9.94
2019-04-23T02:11:10.547Z,9.91
2019-04-23T02:13:42.076Z,9.88
2019-04-23T02:16:10.450Z,9.82
2019-04-23T02:18:43.937Z,9.81
2019-04-23T02:21:36.567Z,9.82
2019-04-23T02:23:49.410Z,9.78
2019-04-23T02:26:23.385Z,9.75
2019-04-23T02:29:03.703Z,9.71
2019-04-23T02:31:44.965Z,9.73
2019-04-23T02:34:04.080Z,9.68
2019-04-23T02:41:35.096Z,9.59
2019-04-23T02:46:33.001Z,9.56
2019-04-23T02:49:35.899Z,9.56
2019-04-23T02:51:42.330Z,9.54
2019-04-23T02:54:26.783Z,9.50
2019-04-23T03:01:39.748Z,9.43
2019-04-23T03:04:32.787Z,9.35
2019-04-23T03:06:56.021Z,9.37
2019-04-23T03:09:33.840Z,9.35
2019-04-23T03:14:41.602Z,9.33
2019-04-23T03:25:07.220Z,9.20
2019-04-23T03:27:41.242Z,9.14
2019-04-23T03:30:16.993Z,9.18
2019-04-23T03:32:51.941Z,9.12
2019-04-23T03:37:40.005Z,9.07
2019-04-23T03:40:09.867Z,9.08
2019-04-23T03:42:42.310Z,9.10
2019-04-23T03:45:36.969Z,9.07
2019-04-23T03:55:35.329Z,8.99
2019-04-23T03:57:45.197Z,8.98
2019-04-23T04:10:24.308Z,8.93
2019-04-23T04:13:00.124Z,8.95
2019-04-23T04:15:53.337Z,8.95
2019-04-23T04:18:23.570Z,8.97
2019-04-23T04:25:39.293Z,9.04
2019-04-23T04:28:12.109Z,9.07
2019-04-23T04:30:43.795Z,9.10
2019-04-23T04:36:08.289Z,9.13
2019-04-23T04:38:36.350Z,9.16
2019-04-23T04:43:32.096Z,9.22
2019-04-23T04:51:15.939Z,9.32
2019-04-23T04:56:23.029Z,9.39
2019-04-23T04:58:47.528Z,9.45
2019-04-23T05:03:36.905Z,9.47
2019-04-23T05:06:21.167Z,9.55
2019-04-23T05:16:21.597Z,9.71
2019-04-23T05:18:53.498Z,9.79
2019-04-23T05:21:21.007Z,9.84
2019-04-23T05:23:54.333Z,9.88
2019-04-23T05:29:01.891Z,10.02
2019-04-23T05:31:23.687Z,10.07
2019-04-23T05:34:02.631Z,10.10
2019-04-23T05:36:32.292Z,10.12
2019-04-23T05:39:07.679Z,10.17
2019-04-23T05:49:06.905Z,10.49
2019-04-23T05:51:44.531Z,10.56
2019-04-23T05:54:14.110Z,10.64
2019-04-23T05:56:38.797Z,10.77
2019-04-23T05:59:12.933Z,10.82
2019-04-23T06:09:19.291Z,11.16
2019-04-23T06:11:59.768Z,11.24
2019-04-23T06:14:25.118Z,11.28
2019-04-23T06:17:24.192Z,11.38
2019-04-23T06:24:27.357Z,11.59
2019-04-23T06:27:00.644Z,11.66
2019-04-23T06:29:32.185Z,11.74
2019-04-23T06:32:14.694Z,11.84
2019-04-23T06:34:38.184Z,11.87
2019-04-23T06:37:03.514Z,11.96
2019-04-23T06:39:42.746Z,12.01
2019-04-23T06:42:07.803Z,12.07
2019-04-23T06:44:45.020Z,12.14
2019-04-23T06:47:16.619Z,12.28
2019-04-23T06:52:18.975Z,12.46
2019-04-23T06:54:56.462Z,12.62
2019-04-23T06:59:48.602Z,12.80
2019-04-23T07:02:26.133Z,12.92
2019-04-23T07:05:03.257Z,12.99
2019-04-23T07:10:10.069Z,13.22
2019-04-23T07:12:35.177Z,13.17
2019-04-23T07:15:12.901Z,13.33
2019-04-23T07:17:46.574Z,13.38
2019-04-23T07:20:00.202Z,13.49
2019-04-23T07:22:28.594Z,13.64
2019-04-23T07:25:10.151Z,13.71
2019-04-23T07:27:30.449Z,13.79
2019-04-23T07:30:20.669Z,13.92
2019-04-23T07:32:44.752Z,13.92
2019-04-23T07:37:49.951Z,14.01
2019-04-23T07:40:27.216Z,14.08
2019-04-23T07:43:03.604Z,14.21
2019-04-23T07:48:13.191Z,14.48
2019-04-23T07:50:51.078Z,14.56
2019-04-23T07:53:17.175Z,14.70
2019-04-23T07:55:56.909Z,14.85
2019-04-23T08:00:54.697Z,15.08
2019-04-23T08:03:31.011Z,15.20
2019-04-23T08:08:28.999Z,15.31
2019-04-23T08:13:50.665Z,15.59
2019-04-23T08:21:14.598Z,15.91
2019-04-23T08:23:55.504Z,16.07
2019-04-23T08:26:42.843Z,16.30
2019-04-23T08:31:43.639Z,16.44
2019-04-23T08:34:30.886Z,16.58
2019-04-23T08:36:48.279Z,16.68
2019-04-23T08:39:21.202Z,16.78
2019-04-23T08:44:27.693Z,17.03
2019-04-23T08:47:08.713Z,17.17
2019-04-23T08:52:10.496Z,17.46
2019-04-23T08:57:08.680Z,17.76
2019-04-23T09:04:50.359Z,17.49
2019-04-23T09:09:53.893Z,18.28
2019-04-23T09:12:25.409Z,18.49
2019-04-23T09:14:53.880Z,18.48
2019-04-23T09:20:11.806Z,18.67
2019-04-23T09:24:55.822Z,18.45
2019-04-23T09:27:31.655Z,18.35
2019-04-23T09:30:00.667Z,18.26
2019-04-23T09:37:44.151Z,19.42
2019-04-23T09:40:18.834Z,19.57
2019-04-23T09:43:08.118Z,19.47
2019-04-23T09:48:23.418Z,20.24
2019-04-23T09:50:44.906Z,20.50
2019-04-23T09:55:53.076Z,20.57
2019-04-23T09:58:11.744Z,20.84
2019-04-23T10:01:00.372Z,20.98
2019-04-23T10:03:09.170Z,21.41
2019-04-23T10:05:39.050Z,21.88
2019-04-23T10:08:07.946Z,21.99
2019-04-23T10:10:30.140Z,22.43
2019-04-23T10:13:00.292Z,22.62
2019-04-23T10:15:35.181Z,23.04
2019-04-23T10:18:02.518Z,23.03
2019-04-23T10:20:32.134Z,23.34
2019-04-23T10:23:02.301Z,23.30
2019-04-23T10:25:32.044Z,22.83
2019-04-23T10:28:07.265Z,22.38
2019-04-23T10:30:34.695Z,22.95
2019-04-23T10:33:05.651Z,23.53
2019-04-23T10:35:46.012Z,24.07
2019-04-23T10:38:10.873Z,23.98
2019-04-23T10:40:43.979Z,23.88
2019-04-23T10:43:11.068Z,24.01
2019-04-23T10:46:09.168Z,23.89
2019-04-23T10:49:02.417Z,23.79
2019-04-23T10:51:42.425Z,24.02
2019-04-23T10:54:30.864Z,24.05
2019-04-23T10:56:53.228Z,24.20
2019-04-23T10:59:38.808Z,23.98
2019-04-23T11:07:28.646Z,23.55
2019-04-23T11:10:52.579Z,24.27
2019-04-23T11:12:37.050Z,24.69
2019-04-23T11:27:51.909Z,21.24
2019-04-23T11:30:33.350Z,21.43
2019-04-23T11:33:02.789Z,21.55
2019-04-23T11:35:31.418Z,21.66
2019-04-23T11:40:25.253Z,21.03
2019-04-23T11:48:22.437Z,23.61
2019-04-23T11:58:14.204Z,24.19
2019-04-23T12:01:00.827Z,24.63
2019-04-23T12:03:14.281Z,25.63
2019-04-23T12:06:11.541Z,24.86
2019-04-23T12:08:43.121Z,24.97
2019-04-23T12:11:39.585Z,25.85
2019-04-23T12:14:16.101Z,26.12
2019-04-23T12:16:50.556Z,26.25
2019-04-23T12:19:40.984Z,25.21
2019-04-23T12:21:43.706Z,25.21
2019-04-23T12:24:17.373Z,24.31
2019-04-23T12:26:44.306Z,24.76
2019-04-23T12:29:23.035Z,24.97
2019-04-23T12:32:14.625Z,24.34
2019-04-23T12:34:44.283Z,23.61
2019-04-23T12:37:15.081Z,23.11
2019-04-23T12:39:42.006Z,22.72
2019-04-23T12:42:37.344Z,22.54
2019-04-23T12:44:53.432Z,22.46
2019-04-23T12:47:27.101Z,21.95
2019-04-23T12:50:13.598Z,21.80
2019-04-23T12:52:25.297Z,21.65
2019-04-23T12:59:58.330Z,21.08
2019-04-23T13:02:33.328Z,20.96
2019-04-23T13:05:05.070Z,20.57
2019-04-23T13:07:33.302Z,20.46
2019-04-23T13:10:01.537Z,20.38
2019-04-23T13:12:44.887Z,20.18
2019-04-23T13:15:02.907Z,20.10
2019-04-23T13:17:44.596Z,19.92
2019-04-23T13:20:07.624Z,20.02
2019-04-23T13:22:49.481Z,20.05
2019-04-23T13:25:23.987Z,20.18
2019-04-23T13:28:08.403Z,20.32
2019-04-23T13:30:31.829Z,20.33
2019-04-23T13:32:59.001Z,20.72
2019-04-23T13:37:59.455Z,21.08
2019-04-23T13:43:12.206Z,20.73
2019-04-23T13:48:13.159Z,20.64
2019-04-23T13:55:42.643Z,20.10
2019-04-23T13:58:26.753Z,20.15
2019-04-23T14:03:30.365Z,20.21
2019-04-23T14:06:08.273Z,20.15
2019-04-23T14:11:19.734Z,20.97
2019-04-23T14:13:45.620Z,21.34
2019-04-23T14:16:13.769Z,21.39
2019-04-23T14:18:56.236Z,21.35
2019-04-23T14:21:20.418Z,21.42
2019-04-23T14:31:31.730Z,21.61
2019-04-23T14:34:01.291Z,21.06
2019-04-23T14:36:31.849Z,20.95
2019-04-23T14:41:22.975Z,20.69
2019-04-23T14:44:05.337Z,20.87
2019-04-23T14:49:05.553Z,20.96
2019-04-23T14:54:24.782Z,21.39
2019-04-23T14:56:39.042Z,21.33
2019-04-23T15:04:01.574Z,21.31
2019-04-23T15:06:46.882Z,21.28
2019-04-23T15:14:17.595Z,20.77
2019-04-23T15:22:17.514Z,20.54
2019-04-23T15:25:06.922Z,20.64
2019-04-23T15:28:05.663Z,20.45
2019-04-23T15:29:57.904Z,20.24
2019-04-23T15:35:26.232Z,20.12
2019-04-23T15:38:10.622Z,19.97
2019-04-23T15:40:18.320Z,19.84
2019-04-23T15:42:57.916Z,19.92
2019-04-23T15:45:19.426Z,19.97
2019-04-23T15:50:23.551Z,19.85
2019-04-23T15:55:27.732Z,19.65
2019-04-23T15:58:07.666Z,19.61
2019-04-23T16:02:32.958Z,19.61
2019-04-23T16:05:03.769Z,19.57
2019-04-23T16:07:53.371Z,19.52
2019-04-23T16:10:46.079Z,19.47
2019-04-23T16:13:31.940Z,19.42
2019-04-23T16:18:35.113Z,19.28
2019-04-23T16:21:12.490Z,19.27
2019-04-23T16:23:37.691Z,19.25
2019-04-23T16:26:08.738Z,19.10
2019-04-23T16:29:00.248Z,19.03
2019-04-23T16:31:15.500Z,19.08
2019-04-23T16:33:42.168Z,19.07
2019-04-23T16:36:11.229Z,19.00
2019-04-23T16:38:47.565Z,18.91
2019-04-23T16:41:16.829Z,18.92
2019-04-23T16:43:48.745Z,18.81
2019-04-23T16:46:21.531Z,18.70
2019-04-23T16:51:25.288Z,18.62
2019-04-23T16:53:52.681Z,18.56
2019-04-23T16:56:29.944Z,18.38
2019-04-23T16:59:02.057Z,18.19
2019-04-23T17:01:20.932Z,17.95
2019-04-23T17:04:03.645Z,17.88
2019-04-23T17:06:48.964Z,17.81
2019-04-23T17:08:57.746Z,17.79
2019-04-23T17:11:39.262Z,17.73
2019-04-23T17:16:33.972Z,17.77
2019-04-23T17:19:10.395Z,17.71
2019-04-23T17:21:36.661Z,17.72
2019-04-23T17:24:14.549Z,17.73
2019-04-23T17:26:39.325Z,17.77
2019-04-23T17:29:16.100Z,17.70
2019-04-23T17:31:38.280Z,17.74
2019-04-23T17:34:23.546Z,17.72
2019-04-23T17:39:28.521Z,17.73
2019-04-23T17:44:54.634Z,17.78
2019-04-23T17:47:24.420Z,17.79
2019-04-23T17:50:03.423Z,17.76
2019-04-23T17:52:21.902Z,17.75
2019-04-23T17:54:56.749Z,17.78
2019-04-23T17:57:26.133Z,17.72
2019-04-23T18:00:11.623Z,17.76
2019-04-23T18:05:02.504Z,17.65
2019-04-23T18:07:44.313Z,17.52
2019-04-23T18:10:18.306Z,17.54
2019-04-23T18:17:35.674Z,17.48
2019-04-23T18:20:14.864Z,17.48
2019-04-23T18:22:49.155Z,17.48
2019-04-23T18:25:18.044Z,17.43
2019-04-23T18:30:46.469Z,17.42
2019-04-23T18:35:37.765Z,17.37
2019-04-23T18:38:25.084Z,17.34
2019-04-23T18:41:03.962Z,17.32
2019-04-23T18:43:26.908Z,17.31
2019-04-23T18:45:59.156Z,17.25
2019-04-23T18:56:20.836Z,17.11
2019-04-23T18:58:51.868Z,17.10
2019-04-23T19:01:27.913Z,17.09
2019-04-23T19:09:13.610Z,17.03
2019-04-23T19:14:25.722Z,17.03
2019-04-23T19:22:14.532Z,17.08
2019-04-23T19:24:30.111Z,17.07
2019-04-23T19:29:36.865Z,17.05
2019-04-23T19:31:56.901Z,17.07
2019-04-23T19:34:35.284Z,17.08
2019-04-23T19:37:13.019Z,17.08
2019-04-23T19:39:36.763Z,17.11
2019-04-23T19:44:43.807Z,17.12
2019-04-23T19:47:18.961Z,17.15
2019-04-23T19:49:50.773Z,17.12
2019-04-23T19:52:21.227Z,17.12
2019-04-23T19:54:55.371Z,17.09
2019-04-23T19:57:24.883Z,17.07
2019-04-23T20:00:28.067Z,17.09
2019-04-23T20:04:56.344Z,17.09
2019-04-23T20:07:30.923Z,17.07
2019-04-23T20:09:55.173Z,17.05
2019-04-23T20:15:08.265Z,17.00
2019-04-23T20:20:02.907Z,16.97
2019-04-23T20:27:42.403Z,16.92
2019-04-23T20:30:56.898Z,16.91
2019-04-23T20:32:09.066Z,16.93
2019-04-23T20:32:09.092Z,16.94
2019-04-23T20:35:36.579Z,16.85
2019-04-23T20:38:25.736Z,16.85
2019-04-23T20:40:48.335Z,16.82
2019-04-23T20:43:09.336Z,16.83
2019-04-23T20:45:48.138Z,16.81
2019-04-23T20:48:18.461Z,16.86
2019-04-23T20:50:44.446Z,16.84
2019-04-23T20:53:13.611Z,16.83
2019-04-23T20:55:58.414Z,16.83
2019-04-23T21:01:18.606Z,16.82
2019-04-23T21:06:10.213Z,16.79
2019-04-23T21:11:04.789Z,16.74
2019-04-23T21:14:01.986Z,16.74
2019-04-23T21:16:15.412Z,16.72
2019-04-23T21:18:44.831Z,16.62
2019-04-23T21:21:20.348Z,16.60
2019-04-23T21:23:50.338Z,16.55
2019-04-23T21:26:17.523Z,16.54
2019-04-23T21:28:49.140Z,16.50
2019-04-23T21:31:19.034Z,16.44
2019-04-23T21:34:06.044Z,16.34
2019-04-23T21:41:56.882Z,16.18
2019-04-23T21:52:17.963Z,16.01
2019-04-23T21:54:37.368Z,16.00
2019-04-23T21:57:05.451Z,15.99
2019-04-23T21:59:34.451Z,15.98
2019-04-23T22:02:14.946Z,16.00
2019-04-23T22:04:48.016Z,15.98
2019-04-23T22:07:07.084Z,15.97
2019-04-23T22:12:14.878Z,15.93
2019-04-23T22:14:45.697Z,15.86
2019-04-23T22:17:16.029Z,15.90
2019-04-23T22:19:57.001Z,15.92
2019-04-23T22:22:38.396Z,15.93
2019-04-23T22:24:53.381Z,15.88
2019-04-23T22:27:16.344Z,15.91
2019-04-23T22:29:49.196Z,15.84
2019-04-23T22:32:32.728Z,15.82
2019-04-23T22:35:04.066Z,15.84
2019-04-23T22:37:32.280Z,15.83
2019-04-23T22:40:00.585Z,15.70
2019-04-23T22:42:57.209Z,15.72
2019-04-23T22:45:21.657Z,15.70
2019-04-23T22:47:40.794Z,15.67
2019-04-23T22:50:05.832Z,15.69
2019-04-23T22:52:41.253Z,15.67
2019-04-23T22:55:23.108Z,15.59
2019-04-23T23:00:14.324Z,15.55
2019-04-23T23:05:50.653Z,15.54
2019-04-23T23:08:11.399Z,15.48
2019-04-23T23:10:44.223Z,15.46
2019-04-23T23:15:49.174Z,15.45
2019-04-23T23:18:23.683Z,15.49
2019-04-23T23:25:51.546Z,15.46
2019-04-23T23:28:20.630Z,15.42
2019-04-23T23:31:06.488Z,15.41
2019-04-23T23:33:23.351Z,15.38
2019-04-23T23:36:03.615Z,15.38
2019-04-23T23:38:33.651Z,15.36
2019-04-23T23:41:03.741Z,15.43
2019-04-23T23:53:51.309Z,15.40
